Pays
Station

 

Conditions  météo  pour  Mitzic  -  Gabon    Gabon

  
26 °C
    
 
 

METAR pour Mitzic :

FOOM 310200Z 17005KT 140V220 9999 FEW011 26/24 Q1012 NOSIG

 

Voici le bulletin pour Mitzic - Gabon.
 
Le bulletin a été fait il y a 624 heures et 48 minutes, à 02:00 UTC .
Le vent soufflait à la vitesse de 2.6 mètres par seconde de Sud (170°), variant entre Sud-est (140°) et Sud-ouest (220°).
 
La température était de 26 °C, avec un point de rosée à 24 °C.
La température ressentie était de 28 °C.
 
La pression atmosphérique était de 1012 hPa.
L'humidité relative était de 88.8%.
 
Il y avait 1 à 2/8ème de nébulosité à une hauteur de 335 mètres.
 
La visibilité globale était de supérieure à 10 kilomètres.
 

 
 
 

Pays :   A   B   C   D   E   F   G   H   I   J   K   L   M   N   O   P   Q   R   S   T   U   V   W   Y   Z

 

Partenaires :  Info Météo avec Met'info
Météo Marine avec MeteoMarine.net
Infos Site  |  Infos Légales  |  Crédits  |  Confidentialité
Contactez-nous  |  Ajouter aux favoris
© 2013-2018 METAR - Tous droits réservés